Time;durP1;ratioP1;P1;durP2;ratioP2;P2;SDS_P1;SDS_P2;PMS_P1;PMS_P2;Temp;Humidity;BMP_temperature;BMP_pressure;BME280_temperature;BME280_humidity;BME280_pressure;Samples;Min_cycle;Max_cycle;Signal;HPM_P1;HPM_P2
2023/01/02 00:01:43;;;;;;;2.58;1.90;;;;;;;5.00;66.70;96522.97;5014141;28;20225;-62
2023/01/02 00:04:10;;;;;;;4.53;2.83;;;;;;;5.31;65.30;96516.75;5021255;28;20314;-62
2023/01/02 00:06:37;;;;;;;2.55;1.98;;;;;;;5.14;66.42;96514.38;5018778;28;20600;-63
2023/01/02 00:09:06;;;;;;;1.27;1.27;;;;;;;5.49;65.38;96519.75;5018955;28;20225;-62
2023/01/02 00:11:33;;;;;;;3.10;1.95;;;;;;;5.69;63.78;96505.16;5011378;28;20210;-63
2023/01/02 00:14:00;;;;;;;9.35;4.13;;;;;;;5.80;63.45;96507.25;5016523;28;20194;-63
2023/01/02 00:16:27;;;;;;;4.43;1.92;;;;;;;5.67;63.26;96509.72;5015853;28;20264;-61
2023/01/02 00:18:54;;;;;;;1.00;1.00;;;;;;;5.79;62.19;96514.25;5013330;28;20283;-62
2023/01/02 00:21:20;;;;;;;1.35;0.98;;;;;;;5.86;62.61;96507.34;5032094;28;20203;-62
2023/01/02 00:23:47;;;;;;;1.75;1.27;;;;;;;5.89;62.34;96506.16;5014399;28;20819;-62
2023/01/02 00:26:14;;;;;;;2.58;2.38;;;;;;;5.77;61.79;96505.81;5039483;28;20196;-62
2023/01/02 00:28:41;;;;;;;4.15;3.80;;;;;;;5.00;64.68;96511.78;5025615;28;20640;-63
2023/01/02 00:31:10;;;;;;;1.92;1.83;;;;;;;5.42;63.89;96498.09;5040821;28;20592;-62
2023/01/02 00:33:37;;;;;;;1.58;1.48;;;;;;;5.70;62.54;96511.94;5023524;28;20256;-62
2023/01/02 00:36:10;;;;;;;1.83;1.58;;;;;;;5.76;61.98;96503.41;5033987;28;20236;-63
2023/01/02 00:38:37;;;;;;;8.23;2.78;;;;;;;5.76;62.34;96501.63;5020190;28;20206;-63
2023/01/02 00:41:05;;;;;;;2.50;2.33;;;;;;;5.78;62.29;96504.03;5031729;28;20232;-61
2023/01/02 00:43:32;;;;;;;1.50;1.40;;;;;;;5.70;61.82;96506.75;5018150;28;20233;-61
2023/01/02 00:45:59;;;;;;;4.85;2.90;;;;;;;5.73;61.68;96503.78;5027683;28;20672;-61
2023/01/02 00:48:31;;;;;;;1.35;1.33;;;;;;;5.63;62.05;96505.88;5015795;28;20553;-62
2023/01/02 00:50:58;;;;;;;0.95;0.95;;;;;;;5.67;62.67;96507.13;5040324;28;20735;-61
2023/01/02 00:53:25;;;;;;;6.25;3.55;;;;;;;5.55;61.59;96506.00;5012149;28;20275;-61
2023/01/02 00:55:52;;;;;;;5.57;3.80;;;;;;;5.53;62.42;96510.59;5034726;28;20237;-62
2023/01/02 00:58:18;;;;;;;2.13;2.03;;;;;;;5.43;62.13;96507.47;5012091;28;20335;-61
2023/01/02 01:01:05;;;;;;;4.30;3.08;;;;;;;5.22;62.68;96512.66;5030547;28;20200;-62
2023/01/02 01:03:32;;;;;;;2.90;2.70;;;;;;;5.10;62.05;96510.53;5021508;28;20208;-61
2023/01/02 01:06:05;;;;;;;1.55;1.48;;;;;;;5.18;62.33;96507.81;5032386;28;20361;-61
2023/01/02 01:08:34;;;;;;;1.48;1.38;;;;;;;5.11;62.29;96512.13;5009742;28;20260;-62
2023/01/02 01:11:06;;;;;;;2.92;2.65;;;;;;;5.12;62.71;96508.56;5028388;28;20205;-62
2023/01/02 01:13:32;;;;;;;5.00;3.63;;;;;;;5.14;62.75;96516.97;5010586;28;20524;-63
2023/01/02 01:16:07;;;;;;;4.00;3.13;;;;;;;5.20;62.33;96509.44;5026168;28;20284;-61
2023/01/02 01:18:34;;;;;;;6.85;4.30;;;;;;;4.73;64.35;96505.44;5009988;28;20284;-63
2023/01/02 01:21:13;;;;;;;18.20;5.15;;;;;;;5.09;63.32;96498.50;5030321;28;20657;-63
2023/01/02 01:23:40;;;;;;;3.90;3.55;;;;;;;5.10;63.17;96507.94;5009738;28;20269;-63
2023/01/02 01:26:10;;;;;;;4.78;4.38;;;;;;;5.09;62.88;96508.91;5026464;28;20189;-62
2023/01/02 01:28:38;;;;;;;3.95;3.63;;;;;;;5.10;62.88;96500.13;5024436;28;20245;-63
2023/01/02 01:31:11;;;;;;;4.25;3.60;;;;;;;5.11;63.04;96501.72;5024979;28;20649;-61
2023/01/02 01:33:40;;;;;;;1.55;1.38;;;;;;;4.92;63.27;96499.72;5021163;28;20243;-63
2023/01/02 01:36:16;;;;;;;5.78;2.95;;;;;;;4.98;63.08;96501.56;5039843;28;20200;-61
2023/01/02 01:38:43;;;;;;;2.95;1.42;;;;;;;5.10;62.53;96500.13;5013681;28;20228;-60
2023/01/02 01:41:12;;;;;;;3.90;3.15;;;;;;;5.13;64.79;96494.56;5031578;28;20201;-62
2023/01/02 01:43:42;;;;;;;3.10;2.90;;;;;;;5.32;64.92;96494.97;5013646;28;20216;-63
2023/01/02 01:46:32;;;;;;;7.68;3.92;;;;;;;5.51;64.37;96496.97;5029147;28;20205;-62
2023/01/02 01:49:08;;;;;;;5.13;3.40;;;;;;;5.37;63.52;96492.59;5021267;28;20313;-62
2023/01/02 01:51:44;;;;;;;2.50;2.30;;;;;;;5.33;62.63;96488.78;5029096;28;20295;-61
2023/01/02 01:54:14;;;;;;;1.00;0.70;;;;;;;5.22;62.89;96497.06;5028304;28;20718;-62
2023/01/02 01:56:48;;;;;;;2.88;2.28;;;;;;;5.21;62.97;96495.44;5031858;28;20229;-64
2023/01/02 01:59:15;;;;;;;4.63;2.85;;;;;;;5.25;63.38;96491.50;5024447;28;20276;-62
2023/01/02 02:01:43;;;;;;;3.08;2.38;;;;;;;5.29;63.07;96487.53;5027353;28;20210;-62
2023/01/02 02:04:12;;;;;;;2.95;2.55;;;;;;;5.18;62.40;96484.41;5036672;28;20208;-66
2023/01/02 02:06:39;;;;;;;1.67;1.38;;;;;;;5.34;61.60;96480.00;5023104;28;20847;-62
2023/01/02 02:09:17;;;;;;;5.55;1.85;;;;;;;5.12;61.23;96485.16;5021245;28;20272;-62
2023/01/02 02:11:45;;;;;;;7.20;1.77;;;;;;;4.99;61.25;96482.41;5040423;28;20636;-61
2023/01/02 02:14:12;;;;;;;1.23;1.23;;;;;;;5.06;60.57;96485.88;5009953;28;20202;-62
2023/01/02 02:16:49;;;;;;;14.45;5.18;;;;;;;4.89;60.97;96489.66;5025402;28;20208;-61
2023/01/02 02:19:29;;;;;;;6.72;4.53;;;;;;;5.05;60.71;96496.47;5010005;28;20247;-62
2023/01/02 02:22:23;;;;;;;1.20;1.20;;;;;;;4.94;60.38;96484.75;5039889;28;20204;-62
2023/01/02 02:25:09;;;;;;;2.00;1.83;;;;;;;4.89;60.67;96489.66;5009547;28;20268;-61
2023/01/02 02:28:14;;;;;;;10.93;3.22;;;;;;;4.73;60.70;96487.28;5031974;28;20213;-63
2023/01/02 02:30:51;;;;;;;2.58;1.23;;;;;;;5.11;60.52;96480.94;5014055;28;20291;-61
2023/01/02 02:33:36;;;;;;;6.60;2.78;;;;;;;4.88;60.58;96495.88;5026348;28;20670;-61
2023/01/02 02:36:12;;;;;;;4.32;3.78;;;;;;;4.73;60.98;96487.28;5020827;28;20242;-62
2023/01/02 02:38:39;;;;;;;8.88;5.05;;;;;;;4.60;61.10;96489.69;5036079;28;20729;-62
2023/01/02 02:41:09;;;;;;;3.90;3.53;;;;;;;4.80;60.54;96488.16;5023116;28;21182;-62
2023/01/02 02:44:10;;;;;;;2.47;2.17;;;;;;;4.86;60.50;96487.44;5031833;28;20290;-64
2023/01/02 02:46:47;;;;;;;0.98;0.98;;;;;;;4.77;60.34;96492.91;5026357;28;20201;-61
2023/01/02 02:49:27;;;;;;;3.30;1.85;;;;;;;4.72;60.62;96479.66;5024735;28;20206;-63
2023/01/02 02:52:21;;;;;;;3.45;3.13;;;;;;;4.73;60.52;96471.69;5026770;28;20194;-61
2023/01/02 02:54:57;;;;;;;4.97;4.20;;;;;;;4.43;61.23;96485.69;5013138;28;20201;-61
2023/01/02 02:57:24;;;;;;;6.25;4.10;;;;;;;4.39;61.43;96479.22;5044372;28;20203;-62
2023/01/02 02:59:52;;;;;;;15.40;8.45;;;;;;;4.36;61.78;96483.97;5015358;28;20252;-60
2023/01/02 03:02:19;;;;;;;4.75;3.95;;;;;;;4.36;61.41;96474.38;5039450;28;20204;-63
2023/01/02 03:04:51;;;;;;;19.70;6.07;;;;;;;4.45;61.19;96462.94;5012037;28;20200;-59
2023/01/02 03:07:41;;;;;;;9.10;5.75;;;;;;;4.53;60.65;96459.44;5034487;28;20196;-59
2023/01/02 03:10:25;;;;;;;13.65;7.10;;;;;;;4.47;60.86;96452.38;5012714;28;20202;-61
2023/01/02 03:13:12;;;;;;;3.75;3.42;;;;;;;4.46;61.20;96448.97;5036478;28;20232;-62
2023/01/02 03:16:17;;;;;;;6.22;5.63;;;;;;;4.57;60.94;96453.72;5025058;28;20546;-61
2023/01/02 03:19:07;;;;;;;2.97;2.78;;;;;;;4.60;60.56;96461.13;5016355;28;20211;-61
2023/01/02 03:21:47;;;;;;;7.28;5.72;;;;;;;4.58;60.44;96455.31;5024954;28;20544;-61
2023/01/02 03:24:18;;;;;;;11.70;7.07;;;;;;;4.64;60.12;96457.19;5039366;28;20262;-63
2023/01/02 03:26:50;;;;;;;5.30;4.80;;;;;;;4.38;60.98;96464.63;5027365;28;20211;-62
2023/01/02 03:29:34;;;;;;;6.75;5.80;;;;;;;4.37;60.87;96465.63;5033183;28;20334;-62
2023/01/02 03:32:06;;;;;;;4.80;4.32;;;;;;;4.32;61.38;96462.75;5029248;28;20612;-61
2023/01/02 03:34:37;;;;;;;7.07;6.43;;;;;;;4.40;60.94;96465.25;5027463;28;20693;-62
2023/01/02 03:37:13;;;;;;;10.68;6.65;;;;;;;4.38;61.23;96466.44;5026780;28;20225;-63
2023/01/02 03:39:47;;;;;;;15.77;8.40;;;;;;;4.41;60.74;96477.25;5023143;28;20236;-62
2023/01/02 03:42:54;;;;;;;16.77;10.68;;;;;;;4.14;61.05;96475.28;5031914;28;20283;-62
2023/01/02 03:45:26;;;;;;;8.75;7.03;;;;;;;4.34;61.05;96486.75;4992560;28;20210;-61
2023/01/02 03:48:01;;;;;;;11.23;9.95;;;;;;;4.23;61.68;96484.59;5035202;28;20207;-62
2023/01/02 03:50:51;;;;;;;19.75;10.23;;;;;;;4.29;61.67;96488.25;5011986;28;20788;-62
2023/01/02 03:53:19;;;;;;;15.95;10.07;;;;;;;4.10;62.21;96489.56;5033715;28;20261;-62
2023/01/02 03:56:01;;;;;;;9.20;7.30;;;;;;;3.98;62.35;96488.38;5011643;28;20260;-62
2023/01/02 03:58:54;;;;;;;17.90;7.57;;;;;;;4.13;62.64;96495.22;5036344;28;20731;-61
2023/01/02 04:01:35;;;;;;;9.35;6.53;;;;;;;3.69;64.36;96491.69;5020584;28;20267;-62
2023/01/02 04:04:11;;;;;;;2.92;2.70;;;;;;;3.97;63.70;96495.38;5038945;28;20201;-61
2023/01/02 04:06:44;;;;;;;13.15;6.85;;;;;;;3.83;63.63;96500.50;5019699;28;20199;-61
2023/01/02 04:09:17;;;;;;;5.22;4.72;;;;;;;3.77;63.83;96504.59;5032507;28;20256;-62
2023/01/02 04:11:50;;;;;;;6.07;4.22;;;;;;;3.93;63.26;96504.47;5020292;28;20205;-61
2023/01/02 04:14:41;;;;;;;6.53;5.97;;;;;;;4.03;63.00;96499.03;5026361;28;20236;-59
2023/01/02 04:17:09;;;;;;;8.25;6.60;;;;;;;3.71;63.94;96504.47;5023062;28;20687;-62
2023/01/02 04:19:43;;;;;;;6.68;6.00;;;;;;;3.66;64.07;96517.16;5031962;28;20186;-61
2023/01/02 04:22:19;;;;;;;14.80;9.70;;;;;;;3.66;63.93;96524.94;5025321;28;20224;-61
2023/01/02 04:24:53;;;;;;;9.63;7.50;;;;;;;3.75;63.44;96521.31;5022710;28;20201;-61
2023/01/02 04:27:28;;;;;;;7.70;6.18;;;;;;;3.81;63.23;96525.81;5025885;28;20196;-61
2023/01/02 04:29:55;;;;;;;14.18;8.10;;;;;;;3.75;63.91;96529.09;5027367;28;20201;-61
2023/01/02 04:32:36;;;;;;;9.27;6.80;;;;;;;3.74;63.15;96530.06;5021257;28;20288;-61
2023/01/02 04:35:09;;;;;;;4.90;4.50;;;;;;;3.56;64.06;96521.78;5023912;28;20209;-61
2023/01/02 04:37:40;;;;;;;12.35;7.75;;;;;;;3.15;65.37;96528.97;5026847;28;20266;-61
2023/01/02 04:40:10;;;;;;;8.07;5.28;;;;;;;3.41;64.31;96539.03;5034481;28;20266;-62
2023/01/02 04:42:37;;;;;;;10.27;7.35;;;;;;;3.46;64.07;96536.72;5044681;28;20620;-61
2023/01/02 04:45:04;;;;;;;5.40;4.80;;;;;;;3.48;63.82;96529.59;5038019;28;20201;-60
2023/01/02 04:47:31;;;;;;;9.60;5.15;;;;;;;3.47;63.86;96538.34;5025030;28;20283;-63
2023/01/02 04:49:58;;;;;;;8.52;5.03;;;;;;;3.74;62.94;96536.03;5033283;28;20299;-61
2023/01/02 04:52:25;;;;;;;5.53;5.05;;;;;;;3.38;64.03;96534.19;5023290;28;20598;-61
2023/01/02 04:54:54;;;;;;;10.43;7.53;;;;;;;3.33;64.00;96521.75;5028270;28;20206;-61
2023/01/02 04:57:20;;;;;;;4.30;3.95;;;;;;;3.29;64.76;96519.66;5021109;28;20213;-61
2023/01/02 04:59:47;;;;;;;11.32;8.48;;;;;;;3.26;64.63;96530.38;5025085;28;20201;-60
2023/01/02 05:02:14;;;;;;;5.47;4.93;;;;;;;3.31;64.52;96522.88;5018053;28;20251;-62
2023/01/02 05:04:42;;;;;;;4.53;4.05;;;;;;;2.99;65.60;96532.44;5035138;28;20209;-60
2023/01/02 05:07:09;;;;;;;10.32;5.55;;;;;;;2.94;66.16;96526.16;5015771;28;20351;-62
2023/01/02 05:09:36;;;;;;;10.20;8.13;;;;;;;3.09;65.30;96529.66;5031647;28;20826;-60
2023/01/02 05:12:03;;;;;;;13.30;5.35;;;;;;;3.31;64.78;96528.06;5014391;28;20197;-62
2023/01/02 05:14:30;;;;;;;5.60;4.93;;;;;;;3.47;63.87;96533.16;5038663;28;20235;-61
2023/01/02 05:16:56;;;;;;;10.05;6.47;;;;;;;3.57;63.34;96531.16;5026335;28;20273;-61
2023/01/02 05:19:23;;;;;;;21.52;7.03;;;;;;;3.42;63.81;96519.91;5023262;28;20337;-61
2023/01/02 05:24:35;;;;;;;4.45;3.92;;;;;;;3.66;63.01;96517.97;5034960;28;20193;-60
2023/01/02 05:27:02;;;;;;;4.88;4.35;;;;;;;3.53;62.86;96514.34;5037116;28;20200;-61
2023/01/02 05:29:29;;;;;;;8.45;5.38;;;;;;;3.55;62.91;96514.97;5034465;28;20686;-61
2023/01/02 05:31:56;;;;;;;13.85;6.30;;;;;;;3.47;62.70;96517.59;5024225;28;20670;-61
2023/01/02 05:34:23;;;;;;;11.38;7.22;;;;;;;3.61;62.62;96519.47;5033927;28;20220;-61
2023/01/02 05:36:50;;;;;;;7.18;6.47;;;;;;;3.68;62.20;96520.38;5022398;28;20292;-61
2023/01/02 05:39:16;;;;;;;7.18;6.47;;;;;;;3.66;62.18;96511.97;5030392;28;20189;-60
2023/01/02 05:41:43;;;;;;;16.35;10.40;;;;;;;3.48;62.59;96514.06;5021785;28;20213;-61
2023/01/02 05:44:10;;;;;;;5.55;5.15;;;;;;;3.38;63.09;96508.25;5025729;28;20229;-61
2023/01/02 05:46:38;;;;;;;7.20;2.58;;;;;;;3.49;62.89;96521.66;5020800;28;20285;-61
2023/01/02 05:49:09;;;;;;;27.15;10.27;;;;;;;3.35;62.80;96514.63;5039233;28;20270;-61
2023/01/02 05:51:36;;;;;;;7.15;6.45;;;;;;;3.30;63.49;96521.28;5009149;28;20206;-62
2023/01/02 05:54:03;;;;;;;7.20;5.57;;;;;;;3.42;63.12;96527.69;5034045;28;20220;-62
2023/01/02 05:56:31;;;;;;;11.93;7.57;;;;;;;3.29;63.18;96530.03;5014394;28;20297;-62
2023/01/02 05:58:57;;;;;;;5.07;4.32;;;;;;;3.40;62.86;96529.63;5027647;28;20231;-61
2023/01/02 06:01:26;;;;;;;8.15;5.85;;;;;;;3.49;62.71;96526.00;5014776;28;20621;-62
2023/01/02 06:03:58;;;;;;;12.00;8.82;;;;;;;3.32;63.27;96529.69;5026943;28;20263;-61
2023/01/02 06:06:37;;;;;;;2.15;1.95;;;;;;;3.22;63.61;96534.28;5034084;28;20197;-61
2023/01/02 06:09:06;;;;;;;11.60;7.40;;;;;;;3.04;64.38;96530.16;5029262;28;20334;-61
2023/01/02 06:11:33;;;;;;;6.75;5.50;;;;;;;3.02;64.74;96544.25;5039906;28;20254;-60
2023/01/02 06:14:00;;;;;;;14.02;6.93;;;;;;;2.85;65.01;96547.88;5035194;28;20671;-61
2023/01/02 06:16:27;;;;;;;10.95;9.05;;;;;;;2.61;65.61;96556.50;5025204;28;20529;-60
2023/01/02 06:18:54;;;;;;;5.22;4.22;;;;;;;3.14;64.42;96552.47;5025757;28;20217;-61
2023/01/02 06:21:22;;;;;;;13.23;6.30;;;;;;;2.85;64.54;96559.03;5029893;28;20194;-60
2023/01/02 06:23:53;;;;;;;3.53;1.75;;;;;;;3.04;64.23;96561.25;5025519;28;20575;-61
2023/01/02 06:26:21;;;;;;;5.03;2.28;;;;;;;3.18;63.62;96558.91;5029530;28;20233;-61
2023/01/02 06:28:53;;;;;;;6.50;5.13;;;;;;;3.02;64.08;96568.38;5029077;28;20199;-63
2023/01/02 06:31:24;;;;;;;3.45;2.65;;;;;;;3.25;63.29;96570.22;5025519;28;20220;-59
2023/01/02 06:33:59;;;;;;;5.30;4.70;;;;;;;3.24;63.35;96573.78;5030513;28;20215;-61
2023/01/02 06:36:29;;;;;;;3.00;2.75;;;;;;;3.36;63.05;96567.25;5030722;28;20207;-60
2023/01/02 06:38:57;;;;;;;1.58;1.48;;;;;;;3.48;62.92;96569.28;5026667;28;20268;-61
2023/01/02 06:41:24;;;;;;;0.93;0.93;;;;;;;3.29;63.51;96567.09;5027906;28;20206;-61
2023/01/02 06:43:51;;;;;;;14.20;5.10;;;;;;;2.97;64.27;96565.44;5020463;28;20635;-62
2023/01/02 06:46:21;;;;;;;18.90;3.38;;;;;;;3.06;64.47;96567.06;5028280;28;20194;-61
2023/01/02 06:48:48;;;;;;;0.85;0.85;;;;;;;3.14;64.35;96568.00;5035070;28;20654;-62
2023/01/02 06:51:18;;;;;;;2.00;1.88;;;;;;;3.09;64.38;96564.13;5031413;28;20247;-62
2023/01/02 06:53:45;;;;;;;6.07;4.95;;;;;;;3.16;64.16;96569.44;5023524;28;20734;-62
2023/01/02 06:56:14;;;;;;;11.98;4.20;;;;;;;3.13;64.53;96561.19;5029340;28;20620;-62
2023/01/02 06:58:41;;;;;;;2.40;2.22;;;;;;;3.35;64.42;96568.22;5020671;28;20205;-61
2023/01/02 07:01:13;;;;;;;4.88;1.65;;;;;;;3.32;63.84;96561.56;5031407;28;20228;-61
2023/01/02 07:03:41;;;;;;;4.15;2.97;;;;;;;3.51;63.78;96571.53;5021187;28;20236;-60
2023/01/02 07:06:11;;;;;;;1.52;1.42;;;;;;;3.50;63.61;96574.28;5038390;28;20616;-62
2023/01/02 07:08:39;;;;;;;3.22;2.95;;;;;;;3.58;63.47;96563.84;5043957;28;21650;-61
2023/01/02 07:11:17;;;;;;;5.38;4.88;;;;;;;3.55;63.97;96566.81;5044428;28;20279;-62
2023/01/02 07:13:45;;;;;;;3.45;2.35;;;;;;;3.39;64.76;96561.72;5022765;28;20229;-61
2023/01/02 07:16:14;;;;;;;5.53;4.03;;;;;;;3.51;64.83;96570.72;5038454;28;20197;-61
2023/01/02 07:18:42;;;;;;;3.80;2.22;;;;;;;3.76;63.69;96564.41;5019070;28;20676;-60
2023/01/02 07:21:10;;;;;;;16.23;4.65;;;;;;;3.84;63.84;96567.75;5039925;28;20197;-61
2023/01/02 07:23:37;;;;;;;4.03;3.30;;;;;;;3.99;63.50;96573.00;5017154;28;20197;-62
2023/01/02 07:26:05;;;;;;;3.58;3.28;;;;;;;3.90;64.22;96566.25;5040907;28;20259;-61
2023/01/02 07:28:33;;;;;;;1.40;1.38;;;;;;;3.83;65.11;96565.34;5024297;28;20185;-61
2023/01/02 07:31:03;;;;;;;6.22;3.30;;;;;;;3.64;66.04;96570.97;5032091;28;20552;-61
2023/01/02 07:33:31;;;;;;;4.45;1.90;;;;;;;3.64;66.30;96570.97;5015188;28;20221;-62
2023/01/02 07:36:00;;;;;;;9.27;4.53;;;;;;;3.73;66.77;96575.13;5038132;28;20211;-60
2023/01/02 07:38:27;;;;;;;3.40;2.90;;;;;;;3.86;66.58;96575.34;5025261;28;20719;-63
2023/01/02 07:40:55;;;;;;;2.63;2.40;;;;;;;4.14;65.35;96566.06;5039197;28;20292;-62
2023/01/02 07:43:22;;;;;;;1.23;1.17;;;;;;;4.28;65.46;96565.28;5023166;28;20206;-64
2023/01/02 07:45:49;;;;;;;2.45;2.25;;;;;;;4.45;64.88;96566.78;5034384;28;20307;-62
2023/01/02 07:48:17;;;;;;;2.28;1.75;;;;;;;4.55;64.84;96566.50;5035344;28;20730;-61
2023/01/02 07:50:45;;;;;;;3.38;2.67;;;;;;;4.34;66.39;96564.59;5036799;28;20299;-60
2023/01/02 07:53:11;;;;;;;2.80;2.60;;;;;;;4.39;66.55;96569.25;5018247;28;20244;-61
2023/01/02 07:55:38;;;;;;;3.33;3.03;;;;;;;4.54;65.96;96565.72;5026272;28;20206;-60
2023/01/02 07:58:06;;;;;;;4.72;3.80;;;;;;;4.38;66.56;96576.22;5019042;28;20573;-61
2023/01/02 08:00:34;;;;;;;12.80;1.88;;;;;;;4.64;66.29;96574.03;5037497;28;20201;-63
2023/01/02 08:03:01;;;;;;;15.38;3.83;;;;;;;4.74;65.46;96566.81;5015068;28;20547;-63
2023/01/02 08:05:27;;;;;;;3.95;3.50;;;;;;;5.33;64.55;96562.34;5031088;28;20212;-62
2023/01/02 08:07:54;;;;;;;5.50;2.38;;;;;;;5.39;64.03;96558.22;5014552;28;20241;-61
2023/01/02 08:10:21;;;;;;;5.07;2.58;;;;;;;5.66;63.68;96562.72;5029569;28;20282;-66
2023/01/02 08:12:48;;;;;;;5.68;3.60;;;;;;;5.91;62.53;96556.22;5036639;28;20203;-62
2023/01/02 08:15:15;;;;;;;0.70;0.70;;;;;;;5.72;63.51;96559.38;5029328;28;20316;-60
2023/01/02 08:17:42;;;;;;;6.28;5.50;;;;;;;5.88;63.68;96552.19;5019181;28;20205;-62
2023/01/02 08:20:09;;;;;;;3.47;2.22;;;;;;;6.17;63.35;96546.03;5026447;28;20558;-61
2023/01/02 08:22:36;;;;;;;2.38;2.28;;;;;;;6.36;62.40;96550.59;5038132;28;20696;-62
2023/01/02 08:25:04;;;;;;;7.57;4.53;;;;;;;6.33;62.62;96545.78;5026681;28;20220;-61
2023/01/02 08:27:30;;;;;;;3.35;2.50;;;;;;;6.41;62.58;96557.84;5034065;28;20213;-60
2023/01/02 08:29:58;;;;;;;2.80;1.70;;;;;;;6.69;62.10;96548.22;5020036;28;20290;-65
2023/01/02 08:32:25;;;;;;;5.07;2.90;;;;;;;7.10;61.77;96544.66;5032042;28;20561;-61
2023/01/02 08:34:51;;;;;;;1.13;1.13;;;;;;;7.36;61.80;96543.16;5031389;28;20299;-62
2023/01/02 08:37:20;;;;;;;1.33;1.10;;;;;;;7.43;60.50;96538.75;5026297;28;20193;-61
2023/01/02 08:39:49;;;;;;;2.05;1.95;;;;;;;7.50;60.50;96539.59;5024276;28;20190;-62
2023/01/02 08:42:16;;;;;;;6.82;3.10;;;;;;;7.70;60.96;96545.69;5034241;28;20245;-62
2023/01/02 08:44:43;;;;;;;2.03;1.48;;;;;;;8.04;59.90;96543.75;5039147;28;20558;-61
2023/01/02 08:47:10;;;;;;;4.15;3.70;;;;;;;8.58;58.76;96540.94;5029676;28;20713;-60
2023/01/02 08:49:37;;;;;;;2.50;2.30;;;;;;;8.67;58.41;96529.28;5012950;28;20218;-63
2023/01/02 08:52:04;;;;;;;3.25;3.00;;;;;;;9.40;56.77;96528.06;5019290;28;20475;-62
2023/01/02 08:54:31;;;;;;;15.67;4.90;;;;;;;9.68;57.99;96523.28;5014543;28;20248;-62
2023/01/02 08:56:58;;;;;;;3.67;3.43;;;;;;;10.04;56.93;96533.13;5038910;28;20490;-62
2023/01/02 08:59:25;;;;;;;7.00;6.17;;;;;;;9.69;55.25;96524.09;5047490;28;20434;-62
2023/01/02 09:01:52;;;;;;;10.47;9.40;;;;;;;9.05;56.20;96524.19;5049572;28;20443;-62
2023/01/02 09:04:19;;;;;;;12.07;10.13;;;;;;;8.36;57.58;96526.50;5017826;28;20455;-61
2023/01/02 09:06:47;;;;;;;19.08;13.32;;;;;;;7.24;59.85;96518.63;5027796;28;20431;-61
2023/01/02 09:09:15;;;;;;;13.90;10.10;;;;;;;7.18;60.38;96521.03;5012505;28;20260;-61
2023/01/02 09:11:50;;;;;;;13.03;6.43;;;;;;;7.18;61.20;96520.22;5009387;28;20522;-62
2023/01/02 09:14:19;;;;;;;10.63;6.50;;;;;;;7.12;61.22;96516.59;5026864;28;21105;-60
2023/01/02 09:16:47;;;;;;;8.07;5.10;;;;;;;6.95;61.53;96523.13;5007271;28;20249;-62
2023/01/02 09:19:15;;;;;;;8.02;4.80;;;;;;;6.95;61.63;96515.28;5010022;28;20205;-61
2023/01/02 09:21:42;;;;;;;4.38;3.97;;;;;;;6.95;62.00;96515.28;5012245;28;20647;-62
2023/01/02 09:24:09;;;;;;;6.28;3.85;;;;;;;7.10;61.59;96497.72;5012315;28;20189;-64
2023/01/02 09:26:41;;;;;;;9.95;7.00;;;;;;;7.21;61.77;96509.41;5017376;28;20201;-62
2023/01/02 09:29:09;;;;;;;1.00;1.00;;;;;;;7.07;62.18;96495.53;5019238;28;20833;-62
2023/01/02 09:31:37;;;;;;;6.07;4.68;;;;;;;6.79;62.40;96499.19;5012969;28;20205;-62
2023/01/02 09:34:04;;;;;;;2.47;2.28;;;;;;;6.38;63.80;96486.13;5007602;28;20209;-62
2023/01/02 09:36:31;;;;;;;7.07;3.05;;;;;;;6.80;63.16;96485.16;5013095;28;20248;-62
2023/01/02 09:39:00;;;;;;;2.65;2.15;;;;;;;7.05;62.86;96479.28;5014952;28;20211;-62
2023/01/02 09:41:37;;;;;;;15.55;6.15;;;;;;;7.34;62.02;96475.53;5028054;28;20293;-61
2023/01/02 09:44:23;;;;;;;4.97;3.80;;;;;;;7.87;61.50;96466.00;5028166;28;20204;-63
2023/01/02 09:46:59;;;;;;;2.80;2.60;;;;;;;8.55;60.10;96460.38;5024063;28;20224;-62
2023/01/02 09:49:31;;;;;;;9.45;8.63;;;;;;;8.93;58.38;96456.03;5011562;28;20618;-60
2023/01/02 09:51:58;;;;;;;7.17;4.10;;;;;;;9.39;58.46;96452.41;5027870;28;20200;-65
2023/01/02 09:54:25;;;;;;;2.53;2.33;;;;;;;9.70;57.55;96447.97;5018729;28;20499;-62
2023/01/02 09:57:03;;;;;;;4.47;3.57;;;;;;;10.09;56.82;96442.47;5015438;28;20451;-62
2023/01/02 09:59:43;;;;;;;3.63;3.33;;;;;;;10.16;56.28;96435.34;5019284;28;20515;-63
2023/01/02 10:02:21;;;;;;;8.40;5.10;;;;;;;10.04;56.75;96431.00;5027312;28;20456;-62
2023/01/02 10:05:18;;;;;;;13.17;7.07;;;;;;;10.19;54.64;96427.06;5021114;28;20512;-61
2023/01/02 10:07:54;;;;;;;8.53;5.13;;;;;;;10.39;54.32;96426.88;5021246;28;20499;-62
2023/01/02 10:10:28;;;;;;;8.23;7.23;;;;;;;10.44;54.17;96424.41;5032443;28;20450;-67
2023/01/02 10:22:26;;;;;;;14.77;9.97;;;;;;;10.60;53.34;96391.59;5261907;23;20512;-61
2023/01/02 10:25:03;;;;;;;5.40;4.27;;;;;;;10.26;54.98;96400.78;4917923;29;20456;-65
2023/01/02 10:27:38;;;;;;;7.20;6.43;;;;;;;10.25;56.33;96399.22;4925412;29;20985;-61
2023/01/02 10:30:06;;;;;;;18.43;10.47;;;;;;;10.48;55.17;96394.13;4924430;29;20511;-60
2023/01/02 10:32:34;;;;;;;5.30;4.57;;;;;;;10.58;55.20;96386.56;4912482;29;20473;-60
2023/01/02 10:35:01;;;;;;;6.63;4.27;;;;;;;10.62;54.26;96394.78;4910363;29;20531;-67
2023/01/02 10:37:28;;;;;;;18.73;9.67;;;;;;;10.70;54.19;96387.44;4913501;29;21299;-66
2023/01/02 10:39:55;;;;;;;7.20;5.37;;;;;;;10.55;54.58;96396.66;4915072;29;20448;-64
2023/01/02 10:42:23;;;;;;;7.30;6.60;;;;;;;10.82;56.70;96390.13;4909312;29;20505;-67
2023/01/02 10:44:51;;;;;;;11.77;4.70;;;;;;;11.05;55.07;96380.53;4917720;29;20528;-64
2023/01/02 10:47:33;;;;;;;2.73;2.03;;;;;;;11.09;53.46;96373.81;4916598;29;20951;-65
2023/01/02 10:50:28;;;;;;;7.63;6.37;;;;;;;11.21;53.75;96369.41;5192875;23;21846;-63
2023/01/02 10:53:07;;;;;;;7.53;5.43;;;;;;;11.42;54.90;96369.94;4904355;29;20611;-67
2023/01/02 10:55:39;;;;;;;9.53;6.63;;;;;;;11.44;53.56;96357.41;4916855;29;20495;-67
2023/01/02 10:58:19;;;;;;;5.90;5.00;;;;;;;11.38;53.61;96358.28;4914596;29;20469;-67
2023/01/02 11:01:01;;;;;;;2.93;2.73;;;;;;;11.08;53.35;96353.84;4907889;29;20555;-64
2023/01/02 11:03:29;;;;;;;7.30;2.93;;;;;;;11.26;53.56;96349.59;4902667;29;20457;-65
2023/01/02 11:05:57;;;;;;;4.73;3.27;;;;;;;11.34;53.07;96346.63;4900680;29;20501;-64
2023/01/02 11:08:41;;;;;;;7.53;4.33;;;;;;;11.29;52.98;96334.19;4902883;29;20461;-64
2023/01/02 11:11:16;;;;;;;2.67;2.07;;;;;;;11.43;53.44;96324.28;4906034;29;20504;-64
2023/01/02 11:13:48;;;;;;;2.33;1.93;;;;;;;11.44;53.69;96331.91;4913654;29;20801;-67
2023/01/02 11:16:22;;;;;;;6.77;2.93;;;;;;;11.64;53.30;96321.13;4919451;29;20452;-68
2023/01/02 11:18:53;;;;;;;2.07;1.87;;;;;;;11.64;52.68;96323.75;4920126;29;20452;-64
2023/01/02 11:21:31;;;;;;;1.40;1.30;;;;;;;11.62;52.94;96323.19;4918412;29;20442;-67
2023/01/02 11:24:18;;;;;;;2.57;1.97;;;;;;;11.69;52.86;96313.41;4913986;29;20481;-65
2023/01/02 11:26:47;;;;;;;5.90;2.97;;;;;;;11.73;53.07;96315.31;4932294;29;20816;-66
2023/01/02 11:29:22;;;;;;;3.63;3.03;;;;;;;11.86;52.76;96309.84;4927207;29;20487;-66
2023/01/02 11:31:53;;;;;;;3.83;3.43;;;;;;;11.75;53.22;96296.75;4932920;29;20447;-68
2023/01/02 11:34:45;;;;;;;4.63;3.80;;;;;;;12.05;52.58;96289.53;4934150;29;20543;-67
2023/01/02 11:40:23;;;;;;;3.43;2.33;;;;;;;12.39;52.98;96288.66;5379272;23;20504;-68
2023/01/02 11:52:48;;;;;;;2.27;2.17;;;;;;;12.55;50.99;96269.53;5779785;23;20579;-62
2023/01/02 11:55:31;;;;;;;2.20;1.83;;;;;;;12.92;50.41;96268.09;4915997;29;21002;-60
2023/01/02 11:58:10;;;;;;;4.83;4.03;;;;;;;13.49;48.59;96262.75;4911121;29;20463;-61
2023/01/02 12:00:40;;;;;;;2.37;2.17;;;;;;;14.86;46.06;96254.56;4913296;29;20497;-60
2023/01/02 12:03:29;;;;;;;4.13;0.87;;;;;;;15.86;43.94;96243.25;4912653;29;21026;-60
2023/01/02 12:06:07;;;;;;;2.90;2.53;;;;;;;15.92;43.18;96247.53;4912807;29;20472;-61
2023/01/02 12:08:44;;;;;;;1.13;1.03;;;;;;;16.77;43.35;96245.25;4912270;29;20963;-60
2023/01/02 12:11:40;;;;;;;8.03;3.30;;;;;;;17.96;42.63;96235.00;4911817;29;20473;-59
2023/01/02 12:14:32;;;;;;;2.37;2.17;;;;;;;18.77;39.00;96227.53;4912426;29;20456;-61
2023/01/02 12:17:30;;;;;;;3.20;1.77;;;;;;;19.69;37.38;96223.94;4914194;29;20481;-60
2023/01/02 12:20:13;;;;;;;14.67;10.20;;;;;;;20.75;35.00;96215.59;4914316;29;20477;-60
2023/01/02 12:23:14;;;;;;;2.63;1.73;;;;;;;21.21;35.41;96215.75;4914014;29;20507;-61
2023/01/02 12:26:09;;;;;;;3.47;2.03;;;;;;;21.29;36.18;96219.63;4914590;29;20935;-60
2023/01/02 12:28:47;;;;;;;3.23;2.20;;;;;;;20.23;36.21;96218.38;4913499;29;20193;-59